This is the latest recevied weather packets stored in our database for station/object W8CWV-13. If no packets are shown the sender has not sent any weather packets the latest 10 day(s).
| Time | Temp. | Humidity | Pressure | Rain* | Wind** | Luminosity | Snow |
|---|---|---|---|---|---|---|---|
| 1778005795 | 29.44° C | 100% | 1016.2 hPa | - | - | - | - |
| 1778005224 | 28.89° C | 100% | 1016.6 hPa | - | - | - | - |
| 1778004656 | 30° C | 100% | 1016.5 hPa | - | - | - | - |
| 1778004080 | 30° C | 100% | 1016.7 hPa | - | - | - | - |
| 1778003504 | 30° C | 100% | 1016.8 hPa | - | - | - | - |
| 1778002933 | 31.11° C | 100% | 1016.7 hPa | - | - | - | - |
| 1778002360 | 32.78° C | 100% | 1016.8 hPa | - | - | - | - |
| 1778001781 | 32.22° C | 100% | 1016.8 hPa | - | - | - | - |
| 1778001209 | 32.22° C | 100% | 1016.8 hPa | - | - | - | - |
| 1778000634 | 31.11° C | 100% | 1017.1 hPa | - | - | - | - |
| 1778000062 | 32.22° C | 100% | 1017.1 hPa | - | - | - | - |
| 1777999487 | 33.33° C | 100% | 1017 hPa | - | - | - | - |
| 1777998914 | 32.78° C | 100% | 1017.3 hPa | - | - | - | - |
| 1777998341 | 33.33° C | 100% | 1017.2 hPa | - | - | - | - |
| 1777997768 | 32.22° C | 100% | 1017.6 hPa | - | - | - | - |
| 1777997190 | 32.22° C | 100% | 1017.7 hPa | - | - | - | - |
| 1777996618 | 32.78° C | 100% | 1018 hPa | - | - | - | - |
| 1777996045 | 33.33° C | 100% | 1018.1 hPa | - | - | - | - |
| 1777995469 | 32.78° C | 100% | 1018 hPa | - | - | - | - |
| 1777994899 | 31.11° C | 100% | 1018.2 hPa | - | - | - | - |
| 1777994323 | 31.67° C | 100% | 1018.3 hPa | - | - | - | - |
| 1777993750 | 32.22° C | 100% | 1018.2 hPa | - | - | - | - |
| 1777993175 | 31.67° C | 100% | 1018.2 hPa | - | - | - | - |
| 1777992601 | 31.11° C | 100% | 1018.3 hPa | - | - | - | - |
| 1777992027 | 31.67° C | 100% | 1018.1 hPa | - | - | - | - |
* Rain since midnight (hover to see other rain measurements)
** Current wind speed in m/s (hover to see current wind gust speed)